Tropical Cyclones
[Index]
Main Index Home Page Stock Weather Photos Extreme Storms Discussion Storm News and Storm Chasing Reports Tropical Cyclones / Hurricanes / Typhoons Weather Data and Links Wild Fires / Bushfires Weather Observation Techniques Weather Picture Catalogue Tornado Pictures and Reports Stock Video Footage and DVDs for sale
Season 2015-2016 Tropical Cyclone YALO Track Map
Season 2015-2016 Summaries (Operational Data): [AU] [SIO] [SPAC] [SH]
<<- Previous TC | 2015-2016 Season | Next TC ->>

click for intensity scale information  Lat/long Grid: Show Hide

 Date Labels: Show Hide

Operational Tropical Cyclone Data : JTWC Advisories

Name: YALO
Number: 1614

21 Feb 2016 06:00 UTC to 28 Feb 2016 12:00 UTC

    date/time    lat    long     hPa   cat  kts
2016-02-21 06   17.3   167.5W   1010         15          
2016-02-21 12   17.2   166.9W   1010         15          
2016-02-21 18   17.1   166.4W   1010         15          
2016-02-22 00   17.0   166.0W   1010         15          
2016-02-22 06   16.3   163.7W   1004         25          
2016-02-22 12   15.7   163.0W   1003         25          
2016-02-22 18   15.1   162.1W   1007         20          
2016-02-23 00   14.7   160.7W   1007         20          
2016-02-23 06   14.3   160.3W   1004         25          
2016-02-23 12   14.7   159.4W   1002         25          
2016-02-23 18   15.2   158.5W   1004         25          
2016-02-24 00   15.9   157.5W   1000         25          
2016-02-24 06   16.6   156.5W   1000         30          
2016-02-24 12   17.4   156.2W   1000         30          
2016-02-24 18   18.1   156.0W   1000         30          
2016-02-25 00   18.5   155.9W    996    1    35          
2016-02-25 06   19.4   155.5W    996    1    35          
2016-02-25 12   20.1   154.7W    985    2    50          
2016-02-25 18   20.9   153.9W    985    2    50          
2016-02-26 00   21.7   153.3W    989    1    45          
2016-02-26 06   22.6   151.6W    993    1    40          
2016-02-26 12   23.4   150.7W    996    1    35          
2016-02-26 18   24.6   149.4W    996    1    35          
2016-02-27 00   25.0   148.4W                            
2016-02-27 06   25.4   147.2W                            
2016-02-27 12   27.0   145.5W                            
2016-02-27 18   26.6   144.8W                            
2016-02-28 00   27.1   143.9W                            
2016-02-28 06   27.6   143.3W                            
2016-02-28 12   28.6   143.2W                            
Winds are 10-min average.

Tropical cyclone tracks developed by Michael Bath using operational warnings and advisories and Google Maps.


[Australian Severe Weather index] [Copyright Notice] [Email Contacts] [Search This Site] [Privacy Policy]
Document: tropical_cyclone_yalo.htm Updated: 2 May 2017